createdAt,value
2022-10-06T00:01:07.990Z,68.17
2022-10-06T00:03:37.689Z,68.25
2022-10-06T00:06:06.224Z,68.38
2022-10-06T00:08:35.325Z,68.10
2022-10-06T00:11:04.032Z,68.23
2022-10-06T00:13:31.856Z,68.38
2022-10-06T00:16:00.054Z,68.20
2022-10-06T00:18:28.505Z,68.21
2022-10-06T00:21:01.174Z,68.37
2022-10-06T00:23:29.213Z,68.06
2022-10-06T00:25:56.598Z,68.10
2022-10-06T00:28:23.569Z,67.96
2022-10-06T00:30:53.354Z,67.84
2022-10-06T00:33:20.555Z,67.81
2022-10-06T00:35:56.703Z,67.52
2022-10-06T00:38:24.086Z,67.75
2022-10-06T00:40:51.629Z,67.55
2022-10-06T00:43:51.393Z,67.71
2022-10-06T00:46:26.180Z,67.73
2022-10-06T00:49:21.103Z,68.41
2022-10-06T00:51:56.839Z,68.74
2022-10-06T00:54:25.134Z,69.06
2022-10-06T00:56:52.589Z,69.29
2022-10-06T00:59:20.406Z,70.00
2022-10-06T01:02:12.139Z,70.15
2022-10-06T01:04:45.006Z,70.28
2022-10-06T01:07:12.126Z,69.99
2022-10-06T01:09:40.155Z,70.54
2022-10-06T01:12:08.588Z,70.39
2022-10-06T01:14:38.731Z,70.26
2022-10-06T01:17:31.116Z,70.64
2022-10-06T01:20:19.509Z,71.27
2022-10-06T01:22:51.403Z,71.21
2022-10-06T01:25:19.367Z,70.71
2022-10-06T01:27:53.419Z,70.97
2022-10-06T01:30:31.546Z,70.71
2022-10-06T01:32:58.752Z,70.61
2022-10-06T01:35:26.380Z,70.23
2022-10-06T01:37:54.774Z,70.37
2022-10-06T01:40:21.569Z,70.24
2022-10-06T01:42:48.762Z,70.80
2022-10-06T01:45:15.737Z,70.60
2022-10-06T01:47:42.588Z,71.05
2022-10-06T01:50:10.316Z,70.67
2022-10-06T01:52:37.197Z,71.01
2022-10-06T01:55:04.732Z,71.21
2022-10-06T01:57:32.133Z,71.42
2022-10-06T01:59:58.980Z,71.49
2022-10-06T02:02:25.927Z,71.77
2022-10-06T02:04:52.814Z,71.62
2022-10-06T02:07:19.859Z,72.08
2022-10-06T02:09:47.323Z,72.35
2022-10-06T02:12:15.972Z,72.02
2022-10-06T02:14:42.954Z,72.42
2022-10-06T02:17:10.311Z,72.34
2022-10-06T02:19:37.116Z,72.24
2022-10-06T02:22:04.245Z,72.68
2022-10-06T02:24:31.418Z,72.54
2022-10-06T02:26:58.614Z,72.93
2022-10-06T02:29:26.040Z,73.17
2022-10-06T02:31:54.614Z,73.16
2022-10-06T02:34:21.822Z,73.11
2022-10-06T02:36:49.420Z,73.13
2022-10-06T02:39:16.728Z,73.35
2022-10-06T02:41:43.639Z,72.84
2022-10-06T02:44:10.465Z,72.90
2022-10-06T02:46:38.626Z,72.86
2022-10-06T02:49:06.430Z,72.75
2022-10-06T02:51:34.732Z,72.83
2022-10-06T02:54:02.475Z,72.90
2022-10-06T02:56:29.392Z,72.52
2022-10-06T02:58:56.905Z,72.37
2022-10-06T03:01:28.531Z,72.44
2022-10-06T03:03:58.694Z,72.51
2022-10-06T03:06:31.053Z,72.40
2022-10-06T03:09:16.215Z,72.70
2022-10-06T03:11:43.931Z,72.08
2022-10-06T03:14:24.322Z,72.00
2022-10-06T03:16:52.009Z,72.39
2022-10-06T03:19:23.419Z,71.98
2022-10-06T03:21:50.505Z,72.19
2022-10-06T03:24:17.696Z,72.30
2022-10-06T03:26:49.057Z,72.13
2022-10-06T03:29:18.417Z,72.57
2022-10-06T03:31:50.260Z,72.57
2022-10-06T03:34:17.185Z,72.66
2022-10-06T03:36:44.940Z,72.73
2022-10-06T03:39:12.627Z,72.91
2022-10-06T03:41:40.567Z,73.43
2022-10-06T03:44:09.472Z,73.22
2022-10-06T03:46:39.150Z,73.52
2022-10-06T03:49:07.716Z,73.59
2022-10-06T03:51:37.382Z,73.45
2022-10-06T03:54:05.135Z,73.83
2022-10-06T03:56:36.647Z,74.08
2022-10-06T03:59:13.021Z,74.19
2022-10-06T04:01:45.068Z,74.06
2022-10-06T04:04:14.762Z,74.27
2022-10-06T04:06:44.651Z,74.42
2022-10-06T04:09:18.236Z,74.54
2022-10-06T04:11:45.369Z,75.04
2022-10-06T04:14:15.485Z,75.38
2022-10-06T04:16:47.099Z,74.91
2022-10-06T04:19:17.970Z,75.29
2022-10-06T04:21:53.931Z,75.19
2022-10-06T04:24:23.586Z,74.75
2022-10-06T04:26:52.428Z,74.84
2022-10-06T04:29:21.117Z,74.37
2022-10-06T04:31:52.827Z,74.66
2022-10-06T04:34:28.139Z,74.78
2022-10-06T04:36:55.498Z,74.74
2022-10-06T04:39:22.523Z,74.27
2022-10-06T04:41:49.504Z,74.75
2022-10-06T04:44:21.577Z,74.45
2022-10-06T04:46:48.919Z,74.51
2022-10-06T04:49:20.349Z,75.13
2022-10-06T04:51:49.939Z,74.65
2022-10-06T04:54:19.069Z,74.67
2022-10-06T04:56:47.884Z,74.93
2022-10-06T04:59:16.307Z,74.84
2022-10-06T05:01:44.882Z,74.74
2022-10-06T05:04:13.893Z,74.81
2022-10-06T05:06:42.362Z,73.91
2022-10-06T05:09:13.126Z,73.82
2022-10-06T05:11:45.400Z,73.69
2022-10-06T05:14:16.251Z,73.87
2022-10-06T05:16:46.534Z,73.99
2022-10-06T05:19:14.673Z,73.74
2022-10-06T05:21:47.428Z,74.13
2022-10-06T05:24:25.183Z,74.17
2022-10-06T05:26:54.785Z,74.06
2022-10-06T05:29:23.298Z,74.38
2022-10-06T05:31:50.628Z,74.85
2022-10-06T05:34:17.980Z,75.05
2022-10-06T05:36:46.280Z,75.54
2022-10-06T05:39:13.063Z,75.76
2022-10-06T05:41:46.652Z,75.17
2022-10-06T05:44:14.615Z,75.48
2022-10-06T05:46:43.373Z,75.10
2022-10-06T05:49:11.475Z,74.23
2022-10-06T05:51:41.947Z,73.95
2022-10-06T05:54:22.566Z,73.27
2022-10-06T05:56:50.400Z,72.99
2022-10-06T05:59:17.290Z,71.52
2022-10-06T06:01:45.055Z,70.49
2022-10-06T06:04:25.983Z,69.76
2022-10-06T06:06:55.908Z,68.78
2022-10-06T06:09:24.087Z,68.22
2022-10-06T06:11:53.788Z,67.78
2022-10-06T06:14:54.259Z,67.65
2022-10-06T06:17:24.892Z,66.45
2022-10-06T06:19:51.758Z,66.43
2022-10-06T06:22:18.667Z,65.44
2022-10-06T06:24:48.420Z,65.31
2022-10-06T06:27:15.817Z,64.54
2022-10-06T06:29:42.622Z,64.01
2022-10-06T06:32:09.668Z,63.29
2022-10-06T06:34:37.212Z,63.08
2022-10-06T06:37:08.433Z,63.52
2022-10-06T06:39:38.981Z,63.00
2022-10-06T06:42:08.470Z,63.54
2022-10-06T06:44:55.681Z,63.07
2022-10-06T06:47:32.332Z,63.61
2022-10-06T06:50:01.070Z,63.18
2022-10-06T06:52:31.129Z,63.60
2022-10-06T06:54:58.425Z,63.14
2022-10-06T06:57:27.340Z,62.28
2022-10-06T06:59:57.047Z,62.47
2022-10-06T07:02:26.563Z,62.73
2022-10-06T07:04:53.644Z,62.13
2022-10-06T07:07:21.119Z,61.44
2022-10-06T07:09:48.308Z,61.79
2022-10-06T07:12:17.116Z,60.88
2022-10-06T07:15:10.623Z,60.62
2022-10-06T07:18:10.272Z,60.29
2022-10-06T07:20:56.253Z,60.02
2022-10-06T07:23:42.202Z,60.64
2022-10-06T07:26:15.948Z,60.13
2022-10-06T07:28:43.611Z,60.43
2022-10-06T07:31:12.226Z,60.92
2022-10-06T07:33:40.836Z,60.84
2022-10-06T07:36:09.135Z,60.86
2022-10-06T07:38:36.319Z,60.82
2022-10-06T07:41:18.793Z,59.72
2022-10-06T07:43:56.551Z,59.42
2022-10-06T07:46:26.632Z,59.20
2022-10-06T07:48:59.310Z,58.62
2022-10-06T07:51:28.186Z,59.34
2022-10-06T07:53:57.101Z,58.78
2022-10-06T07:56:55.284Z,57.90
2022-10-06T07:59:22.349Z,57.15
2022-10-06T08:01:51.199Z,56.69
2022-10-06T08:04:18.126Z,57.47
2022-10-06T08:06:45.271Z,57.13
2022-10-06T08:09:12.178Z,56.50
2022-10-06T08:11:39.010Z,56.76
2022-10-06T08:14:07.131Z,57.17
2022-10-06T08:16:34.585Z,56.55
2022-10-06T08:19:02.017Z,57.39
2022-10-06T08:21:31.710Z,57.45
2022-10-06T08:23:59.496Z,57.40
2022-10-06T08:26:27.985Z,58.02
2022-10-06T08:29:02.210Z,56.86
2022-10-06T08:31:30.701Z,57.92
2022-10-06T08:33:58.270Z,56.73
2022-10-06T08:36:31.339Z,55.92
2022-10-06T08:39:00.553Z,56.18
2022-10-06T08:41:30.324Z,56.09
2022-10-06T08:44:21.339Z,55.48
2022-10-06T08:47:15.793Z,56.34
2022-10-06T08:49:46.125Z,56.57
2022-10-06T08:52:15.860Z,55.38
2022-10-06T08:54:58.960Z,55.49
2022-10-06T08:57:35.930Z,55.52
2022-10-06T09:00:03.979Z,55.42
2022-10-06T09:02:42.617Z,54.69
2022-10-06T09:05:14.098Z,54.80
2022-10-06T09:08:02.187Z,54.05
2022-10-06T09:10:54.600Z,54.57
2022-10-06T09:13:28.614Z,54.22
2022-10-06T09:16:11.008Z,53.95
2022-10-06T09:19:07.257Z,52.71
2022-10-06T09:21:50.325Z,53.39
2022-10-06T09:24:31.088Z,52.95
2022-10-06T09:26:59.137Z,52.55
2022-10-06T09:29:31.754Z,53.34
2022-10-06T09:31:59.259Z,53.22
2022-10-06T09:34:40.620Z,53.92
2022-10-06T09:37:10.804Z,52.42
2022-10-06T09:39:50.711Z,52.51
2022-10-06T09:42:33.776Z,53.91
2022-10-06T09:45:16.947Z,54.63
2022-10-06T09:47:45.773Z,53.43
2022-10-06T09:50:28.615Z,53.68
2022-10-06T09:52:58.296Z,53.51
2022-10-06T09:55:33.900Z,52.85
2022-10-06T09:58:01.585Z,54.39
2022-10-06T10:00:38.866Z,53.65
2022-10-06T10:03:09.275Z,52.68
2022-10-06T10:05:39.434Z,53.76
2022-10-06T10:08:19.660Z,52.66
2022-10-06T10:10:46.651Z,54.30
2022-10-06T10:13:25.691Z,53.98
2022-10-06T10:16:00.388Z,54.71
2022-10-06T10:18:30.354Z,54.70
2022-10-06T10:21:06.513Z,55.25
2022-10-06T10:23:36.280Z,55.40
2022-10-06T10:26:32.734Z,54.72
2022-10-06T10:29:33.465Z,52.95
2022-10-06T10:32:11.896Z,52.65
2022-10-06T10:34:59.176Z,53.48
2022-10-06T10:37:37.305Z,53.77
2022-10-06T10:40:30.513Z,51.96
2022-10-06T10:43:17.463Z,53.04
2022-10-06T10:45:52.279Z,52.11
2022-10-06T10:48:30.184Z,52.19
2022-10-06T10:51:22.776Z,51.85
2022-10-06T10:53:54.967Z,51.86
2022-10-06T10:56:26.315Z,51.83
2022-10-06T10:59:07.176Z,52.41
2022-10-06T11:01:49.812Z,53.17
2022-10-06T11:04:17.044Z,51.61
2022-10-06T11:07:21.269Z,51.32
2022-10-06T11:09:52.113Z,52.74
2022-10-06T11:12:58.010Z,52.25
2022-10-06T11:15:31.592Z,50.50
2022-10-06T11:18:26.184Z,51.56
2022-10-06T11:21:04.248Z,52.23
2022-10-06T11:23:47.066Z,52.36
2022-10-06T11:26:45.309Z,53.02
2022-10-06T11:29:28.898Z,52.92
2022-10-06T11:32:23.879Z,52.97
2022-10-06T11:34:51.815Z,51.52
2022-10-06T11:37:45.087Z,52.20
2022-10-06T11:40:33.414Z,52.64
2022-10-06T11:43:20.632Z,52.27
2022-10-06T11:46:13.838Z,53.01
2022-10-06T11:48:42.360Z,53.39
2022-10-06T11:51:24.698Z,53.42
2022-10-06T11:53:52.837Z,53.53
2022-10-06T11:56:19.589Z,53.40
2022-10-06T11:59:12.945Z,53.26
2022-10-06T12:01:40.184Z,52.93
2022-10-06T12:04:10.263Z,53.06
2022-10-06T12:06:43.525Z,53.67
2022-10-06T12:09:29.258Z,53.91
2022-10-06T12:11:57.493Z,53.61
2022-10-06T12:17:43.905Z,53.38
2022-10-06T12:20:16.727Z,53.99
2022-10-06T12:23:01.014Z,54.35
2022-10-06T12:25:41.312Z,54.23
2022-10-06T12:28:32.914Z,54.50
2022-10-06T12:31:00.132Z,54.78
2022-10-06T12:33:38.192Z,55.35
2022-10-06T12:36:16.477Z,55.79
2022-10-06T12:39:06.974Z,55.31
2022-10-06T12:42:02.597Z,55.96
2022-10-06T12:44:31.510Z,57.02
2022-10-06T12:47:03.964Z,55.42
2022-10-06T12:49:43.734Z,56.19
2022-10-06T12:52:20.386Z,56.96
2022-10-06T12:55:00.319Z,56.87
2022-10-06T12:57:30.707Z,56.89
2022-10-06T12:59:58.150Z,56.31
2022-10-06T13:02:28.933Z,56.59
2022-10-06T13:05:11.738Z,55.33
2022-10-06T13:07:57.302Z,55.86
2022-10-06T13:10:24.278Z,55.45
2022-10-06T13:12:52.263Z,56.41
2022-10-06T13:15:24.062Z,56.92
2022-10-06T13:17:55.135Z,56.58
2022-10-06T13:20:24.596Z,56.40
2022-10-06T13:22:59.820Z,56.91
2022-10-06T13:25:50.627Z,56.74
2022-10-06T13:28:22.175Z,56.21
2022-10-06T13:30:56.846Z,56.62
2022-10-06T13:33:27.167Z,56.81
2022-10-06T13:35:55.099Z,56.73
2022-10-06T13:38:22.011Z,56.60
2022-10-06T13:41:08.031Z,56.87
2022-10-06T13:43:40.443Z,57.09
2022-10-06T13:46:14.862Z,56.78
2022-10-06T13:49:03.596Z,56.46
2022-10-06T13:51:33.219Z,56.89
2022-10-06T13:54:04.025Z,56.85
2022-10-06T13:56:39.489Z,56.71
2022-10-06T13:59:32.103Z,56.85
2022-10-06T14:02:17.787Z,57.18
2022-10-06T14:04:45.463Z,57.55
2022-10-06T14:07:14.275Z,57.12
2022-10-06T14:09:42.500Z,56.88
2022-10-06T14:12:16.248Z,56.86
2022-10-06T14:14:49.728Z,56.91
2022-10-06T14:17:23.115Z,56.19
2022-10-06T14:19:51.155Z,57.07
2022-10-06T14:22:47.594Z,57.19
2022-10-06T14:25:15.660Z,57.11
2022-10-06T14:27:42.496Z,57.21
2022-10-06T14:30:10.644Z,56.95
2022-10-06T14:32:38.857Z,57.04
2022-10-06T14:35:10.936Z,57.06
2022-10-06T14:37:38.277Z,57.46
2022-10-06T14:40:10.121Z,57.76
2022-10-06T14:42:39.029Z,58.00
2022-10-06T14:45:06.631Z,58.22
2022-10-06T14:47:33.528Z,58.21
2022-10-06T14:50:00.595Z,58.35
2022-10-06T14:52:27.499Z,58.66
2022-10-06T14:54:54.387Z,59.08
2022-10-06T14:57:21.913Z,59.74
2022-10-06T14:59:48.709Z,60.14
2022-10-06T15:02:15.975Z,60.37
2022-10-06T15:04:43.164Z,60.32
2022-10-06T15:07:28.633Z,60.35
2022-10-06T15:09:57.155Z,60.66
2022-10-06T15:12:24.007Z,60.45
2022-10-06T15:14:50.974Z,60.92
2022-10-06T15:17:17.800Z,60.95
2022-10-06T15:19:44.707Z,61.04
2022-10-06T15:22:11.570Z,61.34
2022-10-06T15:24:38.447Z,61.22
2022-10-06T15:27:25.027Z,61.33
2022-10-06T15:29:54.098Z,62.12
2022-10-06T15:32:21.411Z,62.73
2022-10-06T15:34:51.996Z,62.91
2022-10-06T15:37:19.987Z,62.91
2022-10-06T15:39:46.772Z,63.27
2022-10-06T15:42:15.547Z,63.19
2022-10-06T15:44:42.385Z,63.45
2022-10-06T15:47:10.036Z,63.84
2022-10-06T15:49:40.671Z,63.61
2022-10-06T15:52:10.967Z,64.04
2022-10-06T15:54:43.785Z,64.48
2022-10-06T15:57:16.360Z,64.88
2022-10-06T15:59:45.015Z,65.09
2022-10-06T16:02:17.397Z,65.23
2022-10-06T16:04:55.414Z,65.40
2022-10-06T16:07:22.465Z,65.33
2022-10-06T16:09:51.073Z,65.81
2022-10-06T16:12:20.519Z,66.01
2022-10-06T16:14:47.919Z,66.12
2022-10-06T16:17:15.147Z,66.21
2022-10-06T16:19:42.231Z,66.57
2022-10-06T16:22:12.379Z,66.91
2022-10-06T16:24:39.129Z,66.92
2022-10-06T16:27:06.594Z,67.08
2022-10-06T16:29:33.469Z,67.18
2022-10-06T16:32:00.265Z,67.29
2022-10-06T16:34:27.124Z,67.47
2022-10-06T16:36:53.964Z,68.07
2022-10-06T16:39:22.657Z,68.12
2022-10-06T16:41:50.504Z,68.22
2022-10-06T16:44:18.553Z,68.56
2022-10-06T16:46:45.683Z,68.80
2022-10-06T16:49:13.192Z,68.65
2022-10-06T16:51:42.879Z,68.70
2022-10-06T16:54:12.164Z,68.80
2022-10-06T16:56:45.454Z,68.95
2022-10-06T16:59:14.138Z,68.92
2022-10-06T17:01:41.372Z,68.75
2022-10-06T17:04:14.602Z,68.90
2022-10-06T17:06:44.218Z,68.96
2022-10-06T17:09:14.395Z,69.48
2022-10-06T17:11:43.768Z,69.37
2022-10-06T17:14:11.785Z,69.74
2022-10-06T17:16:40.889Z,69.54
2022-10-06T17:19:09.767Z,69.65
2022-10-06T17:21:58.209Z,69.87
2022-10-06T17:24:27.814Z,69.99
2022-10-06T17:26:55.297Z,69.41
2022-10-06T17:29:22.896Z,69.49
2022-10-06T17:31:56.335Z,69.26
2022-10-06T17:34:27.757Z,69.10
2022-10-06T17:36:57.662Z,68.92
2022-10-06T17:39:24.626Z,69.07
2022-10-06T17:41:53.453Z,69.05
2022-10-06T17:44:26.010Z,68.68
2022-10-06T17:46:55.647Z,68.78
2022-10-06T17:49:24.224Z,69.07
2022-10-06T17:51:53.603Z,68.78
2022-10-06T17:54:23.832Z,69.16
2022-10-06T17:56:54.215Z,68.92
2022-10-06T17:59:30.840Z,69.20
2022-10-06T18:02:00.591Z,69.00
2022-10-06T18:04:28.811Z,69.13
2022-10-06T18:06:56.166Z,68.87
2022-10-06T18:09:23.520Z,69.10
2022-10-06T18:11:55.959Z,69.15
2022-10-06T18:14:26.093Z,69.40
2022-10-06T18:16:59.766Z,69.42
2022-10-06T18:19:34.538Z,69.20
2022-10-06T18:22:10.438Z,69.44
2022-10-06T18:24:39.038Z,69.28
2022-10-06T18:27:08.104Z,69.40
2022-10-06T18:29:37.363Z,69.36
2022-10-06T18:32:58.986Z,69.38
2022-10-06T18:37:40.324Z,69.57
2022-10-06T18:40:09.829Z,69.62
2022-10-06T18:42:39.120Z,69.64
2022-10-06T18:45:25.644Z,69.75
2022-10-06T18:48:11.379Z,69.94
2022-10-06T18:50:40.532Z,69.92
2022-10-06T18:53:10.580Z,69.87
2022-10-06T18:55:37.372Z,69.94
2022-10-06T18:58:04.833Z,70.20
2022-10-06T19:00:32.403Z,70.57
2022-10-06T19:02:59.663Z,70.54
2022-10-06T19:05:26.864Z,70.37
2022-10-06T19:07:54.162Z,70.42
2022-10-06T19:10:21.565Z,70.90
2022-10-06T19:12:49.473Z,71.04
2022-10-06T19:15:20.687Z,71.16
2022-10-06T19:17:49.781Z,71.61
2022-10-06T19:20:18.551Z,71.52
2022-10-06T19:22:46.538Z,71.67
2022-10-06T19:25:14.679Z,71.67
2022-10-06T19:27:42.473Z,71.88
2022-10-06T19:30:09.684Z,71.71
2022-10-06T19:32:36.823Z,71.92
2022-10-06T19:35:09.192Z,71.90
2022-10-06T19:37:37.586Z,71.99
2022-10-06T19:40:06.938Z,72.04
2022-10-06T19:42:49.456Z,71.89
2022-10-06T19:45:18.327Z,71.86
2022-10-06T19:47:47.105Z,71.66
2022-10-06T19:50:17.275Z,71.95
2022-10-06T19:52:47.041Z,71.72
2022-10-06T19:55:14.334Z,71.95
2022-10-06T19:57:47.589Z,72.36
2022-10-06T20:00:15.703Z,72.19
2022-10-06T20:02:46.910Z,72.07
2022-10-06T20:05:16.308Z,72.07
2022-10-06T20:07:45.953Z,71.87
2022-10-06T20:10:15.254Z,72.11
2022-10-06T20:12:42.207Z,71.80
2022-10-06T20:15:09.970Z,72.07
2022-10-06T20:17:37.801Z,71.92
2022-10-06T20:20:05.009Z,71.83
2022-10-06T20:22:32.365Z,71.88
2022-10-06T20:25:01.651Z,71.97
2022-10-06T20:27:28.847Z,71.80
2022-10-06T20:29:57.090Z,72.27
2022-10-06T20:32:23.966Z,72.65
2022-10-06T20:34:50.856Z,72.71
2022-10-06T20:37:17.777Z,72.85
2022-10-06T20:40:03.514Z,72.89
2022-10-06T20:42:31.425Z,72.74
2022-10-06T20:44:58.789Z,72.72
2022-10-06T20:47:25.672Z,72.77
2022-10-06T20:49:55.387Z,73.38
2022-10-06T20:52:23.996Z,73.26
2022-10-06T20:54:51.300Z,73.72
2022-10-06T20:57:18.663Z,74.08
2022-10-06T20:59:46.319Z,74.13
2022-10-06T21:02:13.502Z,74.53
2022-10-06T21:04:43.621Z,74.61
2022-10-06T21:07:11.185Z,74.59
2022-10-06T21:09:37.974Z,74.70
2022-10-06T21:12:05.108Z,74.56
2022-10-06T21:14:34.071Z,74.40
2022-10-06T21:17:00.950Z,74.30
2022-10-06T21:19:29.925Z,74.20
2022-10-06T21:21:56.946Z,74.44
2022-10-06T21:24:24.037Z,74.36
2022-10-06T21:26:52.681Z,74.42
2022-10-06T21:29:20.478Z,74.50
2022-10-06T21:31:47.761Z,74.99
2022-10-06T21:34:14.711Z,74.82
2022-10-06T21:36:43.369Z,75.05
2022-10-06T21:39:12.041Z,74.56
2022-10-06T21:41:39.717Z,74.80
2022-10-06T21:44:12.586Z,75.05
2022-10-06T21:46:48.278Z,75.05
2022-10-06T21:49:17.820Z,75.19
2022-10-06T21:51:46.705Z,75.20
2022-10-06T21:54:14.334Z,75.34
2022-10-06T21:56:41.394Z,75.57
2022-10-06T21:59:08.961Z,75.34
2022-10-06T22:01:38.893Z,75.23
2022-10-06T22:04:06.491Z,75.28
2022-10-06T22:06:35.665Z,75.35
2022-10-06T22:09:04.098Z,75.37
2022-10-06T22:11:34.164Z,75.41
2022-10-06T22:14:04.403Z,75.93
2022-10-06T22:16:34.068Z,75.91
2022-10-06T22:19:03.230Z,76.14
2022-10-06T22:21:33.037Z,76.27
2022-10-06T22:24:04.983Z,76.26
2022-10-06T22:26:33.880Z,76.26
2022-10-06T22:29:00.959Z,76.19
2022-10-06T22:31:28.505Z,76.20
2022-10-06T22:33:58.347Z,76.17
2022-10-06T22:36:26.588Z,75.84
2022-10-06T22:38:53.958Z,76.52
2022-10-06T22:41:21.164Z,76.67
2022-10-06T22:43:48.140Z,76.69
2022-10-06T22:46:15.128Z,77.47
2022-10-06T22:48:42.003Z,77.71
2022-10-06T22:51:08.938Z,78.04
2022-10-06T22:53:35.811Z,78.78
2022-10-06T22:56:03.872Z,78.79
2022-10-06T22:58:30.932Z,78.70
2022-10-06T23:00:57.879Z,78.70
2022-10-06T23:03:24.893Z,78.85
2022-10-06T23:05:59.537Z,78.69
2022-10-06T23:08:32.712Z,78.51
2022-10-06T23:11:07.420Z,78.80
2022-10-06T23:13:34.373Z,78.77
2022-10-06T23:16:08.059Z,78.72
2022-10-06T23:18:37.742Z,78.47
2022-10-06T23:21:10.393Z,78.88
2022-10-06T23:23:38.033Z,78.66
2022-10-06T23:26:06.278Z,78.79
2022-10-06T23:28:33.919Z,78.82
2022-10-06T23:31:00.815Z,78.47
2022-10-06T23:33:30.311Z,78.46
2022-10-06T23:36:02.704Z,78.53
2022-10-06T23:38:29.616Z,78.64
2022-10-06T23:40:56.790Z,78.54
2022-10-06T23:43:24.427Z,78.50
2022-10-06T23:45:51.392Z,78.72
2022-10-06T23:48:18.552Z,78.48
2022-10-06T23:51:01.977Z,78.74
2022-10-06T23:53:30.367Z,78.33
2022-10-06T23:55:57.905Z,78.31
2022-10-06T23:58:25.458Z,78.13
